Time;durP1;ratioP1;P1;durP2;ratioP2;P2;SDS_P1;SDS_P2;PMS_P1;PMS_P2;Temp;Humidity;BMP_temperature;BMP_pressure;BME280_temperature;BME280_humidity;BME280_pressure;Samples;Min_cycle;Max_cycle;Signal;HPM_P1;HPM_P2
2023/01/05 00:01:04;;;;;;;4.33;2.03;;;12.40;99.90;;;;;;5097295;28;20404;-79
2023/01/05 00:03:30;;;;;;;10.47;3.10;;;12.40;99.90;;;;;;5097728;28;20324;-79
2023/01/05 00:05:59;;;;;;;8.63;2.37;;;12.40;99.90;;;;;;5085610;28;20511;-79
2023/01/05 00:08:25;;;;;;;6.53;2.80;;;12.50;99.90;;;;;;5077137;28;20462;-79
2023/01/05 00:24:31;;;;;;;7.10;2.37;;;12.30;99.90;;;;;;5087661;28;20446;-80
2023/01/05 00:26:56;;;;;;;8.73;2.00;;;12.20;99.90;;;;;;5100057;28;20921;-79
2023/01/05 00:29:22;;;;;;;5.40;1.80;;;12.20;99.90;;;;;;5101953;28;20174;-79
2023/01/05 00:31:47;;;;;;;12.93;2.40;;;12.30;99.90;;;;;;5086476;28;20186;-79
2023/01/05 00:34:13;;;;;;;7.07;2.30;;;12.30;99.90;;;;;;5077628;28;20209;-78
2023/01/05 00:36:39;;;;;;;7.93;2.17;;;12.20;99.90;;;;;;5081679;28;20197;-80
2023/01/05 00:39:05;;;;;;;8.73;2.67;;;12.30;99.90;;;;;;5079260;28;20181;-80
2023/01/05 00:41:31;;;;;;;12.70;1.90;;;12.20;99.90;;;;;;5081436;28;20401;-80
2023/01/05 00:43:56;;;;;;;8.73;2.20;;;12.30;99.90;;;;;;5079319;28;20569;-79
2023/01/05 00:46:22;;;;;;;9.07;2.17;;;12.20;99.90;;;;;;5080350;28;20188;-80
2023/01/05 00:48:47;;;;;;;13.83;2.33;;;12.20;99.90;;;;;;5090128;28;20170;-80
2023/01/05 00:51:13;;;;;;;11.63;1.70;;;12.20;99.90;;;;;;5087449;28;20560;-80
2023/01/05 00:53:38;;;;;;;5.90;1.53;;;12.20;99.90;;;;;;5079283;28;20174;-79
2023/01/05 00:56:04;;;;;;;4.80;1.93;;;12.20;99.90;;;;;;5078535;28;20205;-80
2023/01/05 00:58:29;;;;;;;7.93;2.13;;;12.20;99.90;;;;;;5078886;28;20566;-80
2023/01/05 01:00:55;;;;;;;11.90;3.00;;;12.10;99.90;;;;;;5080778;28;20259;-79
2023/01/05 01:03:20;;;;;;;14.57;2.37;;;12.10;99.90;;;;;;5078659;28;20578;-79
2023/01/05 01:05:55;;;;;;;7.80;2.80;;;12.20;99.90;;;;;;5077338;28;20205;-80
2023/01/05 01:08:21;;;;;;;9.53;2.43;;;12.20;99.90;;;;;;5080914;28;20653;-80
2023/01/05 01:10:47;;;;;;;21.37;5.30;;;12.20;99.90;;;;;;5080760;28;20437;-80
2023/01/05 01:13:12;;;;;;;9.27;2.27;;;12.20;99.90;;;;;;5093023;28;20185;-79
2023/01/05 01:15:38;;;;;;;14.60;2.70;;;12.10;99.90;;;;;;5100581;28;20193;-79
2023/01/05 01:18:03;;;;;;;9.70;2.80;;;12.10;99.90;;;;;;5099816;28;20576;-79
2023/01/05 01:20:29;;;;;;;6.47;2.50;;;12.20;99.90;;;;;;5101689;28;20168;-80
2023/01/05 01:22:55;;;;;;;4.17;2.17;;;12.10;99.90;;;;;;5101844;28;20855;-80
2023/01/05 01:25:21;;;;;;;11.20;2.30;;;12.10;99.90;;;;;;5096380;28;20170;-79
2023/01/05 01:27:47;;;;;;;5.93;1.80;;;12.20;99.90;;;;;;5082886;28;20424;-79
2023/01/05 01:30:12;;;;;;;5.73;2.20;;;12.20;99.90;;;;;;5096933;28;20420;-80
2023/01/05 01:32:38;;;;;;;8.70;2.30;;;12.20;99.90;;;;;;5081216;28;20241;-79
2023/01/05 01:35:04;;;;;;;5.97;2.20;;;12.20;99.90;;;;;;5081791;28;20254;-79
2023/01/05 01:37:29;;;;;;;22.47;3.10;;;12.20;99.90;;;;;;5092240;28;20216;-79
2023/01/05 01:39:55;;;;;;;8.63;1.67;;;12.10;99.90;;;;;;5090227;28;20417;-80
2023/01/05 01:42:22;;;;;;;9.10;3.90;;;12.20;99.90;;;;;;5079825;28;20171;-80
2023/01/05 01:45:14;;;;;;;6.97;2.47;;;12.20;99.90;;;;;;5079425;28;20174;-80
2023/01/05 01:47:46;;;;;;;5.83;2.30;;;12.20;99.90;;;;;;5081009;28;20404;-80
2023/01/05 01:50:17;;;;;;;11.37;2.53;;;12.20;99.90;;;;;;5101385;28;20500;-80
2023/01/05 01:52:46;;;;;;;10.20;2.30;;;12.20;99.90;;;;;;5101117;28;20625;-80
2023/01/05 01:55:12;;;;;;;6.40;2.37;;;12.20;99.90;;;;;;5103650;28;20458;-79
2023/01/05 01:57:38;;;;;;;10.93;2.47;;;12.20;99.90;;;;;;5102652;28;20412;-79
2023/01/05 02:00:07;;;;;;;7.47;2.77;;;12.10;99.90;;;;;;5102388;28;20889;-79
2023/01/05 02:02:33;;;;;;;8.93;1.90;;;12.20;99.90;;;;;;5080114;28;20517;-79
2023/01/05 02:05:03;;;;;;;8.37;2.37;;;12.20;99.90;;;;;;5081490;28;20420;-80
2023/01/05 02:07:32;;;;;;;18.43;2.93;;;12.10;99.90;;;;;;5080072;28;20227;-80
2023/01/05 02:09:58;;;;;;;9.27;2.50;;;12.10;99.90;;;;;;5078604;28;20442;-79
2023/01/05 02:12:42;;;;;;;10.03;1.93;;;12.00;99.90;;;;;;5079736;28;20420;-80
2023/01/05 02:15:29;;;;;;;9.87;2.80;;;12.10;99.90;;;;;;5081829;28;20273;-79
2023/01/05 02:18:15;;;;;;;4.00;1.80;;;12.10;99.90;;;;;;5080149;28;20880;-80
2023/01/05 02:20:54;;;;;;;7.17;2.07;;;12.00;99.90;;;;;;5078235;28;20435;-79
2023/01/05 02:23:38;;;;;;;6.63;2.33;;;12.10;99.90;;;;;;5080723;28;20420;-80
2023/01/05 02:26:47;;;;;;;8.30;2.30;;;12.00;99.90;;;;;;5079652;28;20462;-80
2023/01/05 02:29:18;;;;;;;15.23;3.50;;;12.00;99.90;;;;;;5083178;28;20450;-80
2023/01/05 02:32:02;;;;;;;9.13;3.87;;;12.00;99.90;;;;;;5078651;28;20507;-79
2023/01/05 02:34:40;;;;;;;6.27;2.30;;;12.00;99.90;;;;;;5081029;28;20478;-79
2023/01/05 02:37:14;;;;;;;6.13;2.40;;;12.00;99.90;;;;;;5085832;28;20981;-80
2023/01/05 02:39:44;;;;;;;11.70;2.47;;;11.80;99.90;;;;;;5090338;28;20410;-79
2023/01/05 02:42:14;;;;;;;12.63;3.90;;;11.70;99.90;;;;;;5106940;28;20506;-79
2023/01/05 02:44:40;;;;;;;9.80;2.27;;;11.70;99.90;;;;;;5107683;28;20501;-79
2023/01/05 02:47:28;;;;;;;13.87;3.03;;;11.70;99.90;;;;;;5104105;28;20461;-79
2023/01/05 02:50:00;;;;;;;5.17;1.90;;;11.60;99.90;;;;;;5104763;28;20314;-79
2023/01/05 02:52:26;;;;;;;8.20;2.70;;;11.50;99.90;;;;;;5100359;28;20439;-80
2023/01/05 02:55:01;;;;;;;9.73;3.00;;;11.40;99.90;;;;;;5083104;28;20462;-79
2023/01/05 02:57:49;;;;;;;7.80;1.93;;;11.50;99.90;;;;;;5083875;28;20432;-80
2023/01/05 03:00:52;;;;;;;14.27;2.93;;;11.60;99.90;;;;;;5083267;28;20412;-80
2023/01/05 03:03:29;;;;;;;9.60;2.43;;;11.60;99.90;;;;;;5074387;28;20420;-80
2023/01/05 03:06:10;;;;;;;6.87;2.80;;;11.50;99.90;;;;;;5104960;28;20426;-80
2023/01/05 03:08:40;;;;;;;9.63;2.63;;;11.60;99.90;;;;;;5105070;28;20543;-79
2023/01/05 03:14:18;;;;;;;10.77;3.20;;;11.60;99.90;;;;;;5104073;28;20976;-79
2023/01/05 03:16:46;;;;;;;7.37;2.80;;;11.50;99.90;;;;;;5103718;28;20518;-79
2023/01/05 03:36:02;;;;;;;4.40;2.67;;;11.50;99.90;;;;;;5084056;28;20459;-80
2023/01/05 03:38:34;;;;;;;7.60;2.67;;;11.50;99.90;;;;;;5083561;28;20483;-80
2023/01/05 03:41:02;;;;;;;4.90;2.37;;;11.50;99.90;;;;;;5085401;28;20411;-79
2023/01/05 03:43:31;;;;;;;7.70;2.87;;;11.60;99.90;;;;;;5081869;28;20446;-80
2023/01/05 03:45:57;;;;;;;8.27;3.60;;;11.50;99.90;;;;;;5083109;28;20437;-80
2023/01/05 03:48:25;;;;;;;10.33;3.20;;;11.50;99.90;;;;;;5083636;28;20492;-80
2023/01/05 03:50:50;;;;;;;11.80;3.40;;;11.50;99.90;;;;;;5083663;28;20178;-80
2023/01/05 03:53:16;;;;;;;11.57;3.77;;;11.60;99.90;;;;;;5084705;28;20416;-80
2023/01/05 03:55:42;;;;;;;13.23;4.10;;;11.50;99.90;;;;;;5102580;28;20212;-80
2023/01/05 03:58:08;;;;;;;7.33;2.13;;;11.60;99.90;;;;;;5104640;28;20420;-79
2023/01/05 04:00:33;;;;;;;8.53;2.73;;;11.60;99.90;;;;;;5105836;28;20191;-79
2023/01/05 04:02:59;;;;;;;9.97;2.90;;;11.60;99.90;;;;;;5103111;28;20176;-80
2023/01/05 04:05:24;;;;;;;10.13;3.00;;;11.60;99.90;;;;;;5102943;28;20265;-80
2023/01/05 04:07:50;;;;;;;6.90;2.73;;;11.70;99.90;;;;;;5081017;28;20241;-79
2023/01/05 04:10:16;;;;;;;14.50;5.40;;;11.70;99.90;;;;;;5082651;28;20257;-80
2023/01/05 04:12:41;;;;;;;8.93;3.20;;;11.70;99.90;;;;;;5083332;28;20245;-80
2023/01/05 04:15:07;;;;;;;9.97;2.63;;;11.80;99.90;;;;;;5082704;28;20444;-80
2023/01/05 04:17:33;;;;;;;18.80;3.30;;;11.80;99.90;;;;;;5083971;28;20173;-81
2023/01/05 04:19:59;;;;;;;8.77;2.23;;;11.80;99.90;;;;;;5102646;28;20483;-80
2023/01/05 04:22:24;;;;;;;9.40;2.23;;;11.80;99.90;;;;;;5104603;28;20169;-79
2023/01/05 04:24:50;;;;;;;6.80;2.63;;;11.80;99.90;;;;;;5087921;28;20181;-80
2023/01/05 04:27:15;;;;;;;12.23;2.80;;;11.90;99.90;;;;;;5082719;28;20197;-80
2023/01/05 04:29:41;;;;;;;10.83;3.80;;;11.90;99.90;;;;;;5083684;28;20173;-79
2023/01/05 04:32:06;;;;;;;13.70;3.27;;;11.90;99.90;;;;;;5082517;28;20204;-80
2023/01/05 04:34:32;;;;;;;11.47;3.30;;;11.90;99.90;;;;;;5083180;28;20202;-80
2023/01/05 04:36:57;;;;;;;9.23;2.53;;;11.90;99.90;;;;;;5081725;28;20186;-80
2023/01/05 04:39:23;;;;;;;12.50;2.67;;;11.90;99.90;;;;;;5082127;28;20638;-79
2023/01/05 04:41:49;;;;;;;11.23;2.40;;;11.90;99.90;;;;;;5081153;28;20170;-80
2023/01/05 04:44:15;;;;;;;11.50;2.87;;;11.90;99.90;;;;;;5082183;28;20198;-80
2023/01/05 04:46:41;;;;;;;14.83;3.00;;;11.90;99.90;;;;;;5080663;28;20498;-80
2023/01/05 04:49:08;;;;;;;13.63;3.67;;;11.90;99.90;;;;;;5081765;28;20178;-80
2023/01/05 04:51:33;;;;;;;9.63;2.70;;;11.90;99.90;;;;;;5082465;28;20466;-79
2023/01/05 04:53:59;;;;;;;4.90;2.40;;;11.90;99.90;;;;;;5082659;28;20405;-80
2023/01/05 04:56:24;;;;;;;6.30;2.50;;;11.90;99.90;;;;;;5082200;28;20254;-80
2023/01/05 04:58:50;;;;;;;10.73;2.50;;;12.00;99.90;;;;;;5081643;28;20654;-80
2023/01/05 05:01:15;;;;;;;8.20;2.53;;;11.90;99.90;;;;;;5080843;28;20269;-80
2023/01/05 05:03:41;;;;;;;9.90;2.40;;;11.90;99.90;;;;;;5081807;28;20166;-80
2023/01/05 05:06:06;;;;;;;8.53;3.37;;;11.80;99.90;;;;;;5079815;28;20195;-80
2023/01/05 05:08:32;;;;;;;6.57;2.40;;;11.80;99.90;;;;;;5081910;28;20256;-80
2023/01/05 05:10:58;;;;;;;14.20;2.80;;;11.80;99.90;;;;;;5081539;28;20265;-81
2023/01/05 05:13:24;;;;;;;13.00;3.37;;;11.80;99.90;;;;;;5082163;28;20194;-80
2023/01/05 05:15:49;;;;;;;7.13;2.97;;;11.80;99.90;;;;;;5081313;28;20492;-80
2023/01/05 05:18:15;;;;;;;8.43;3.27;;;11.70;99.90;;;;;;5084445;28;20185;-80
2023/01/05 05:20:43;;;;;;;6.03;2.90;;;11.60;99.90;;;;;;5083243;28;20162;-79
2023/01/05 05:23:08;;;;;;;15.77;5.70;;;11.60;99.90;;;;;;5082003;28;20249;-79
2023/01/05 05:25:34;;;;;;;28.30;10.13;;;11.60;99.90;;;;;;5081490;28;20479;-80
2023/01/05 05:27:59;;;;;;;11.73;3.50;;;11.60;99.90;;;;;;5081232;28;20166;-79
2023/01/05 05:30:25;;;;;;;13.37;3.10;;;11.50;99.90;;;;;;5082178;28;20585;-80
2023/01/05 05:32:50;;;;;;;13.43;3.23;;;11.50;99.90;;;;;;5080941;28;20174;-80
2023/01/05 05:35:16;;;;;;;12.80;3.87;;;11.50;99.90;;;;;;5079436;28;20201;-80
2023/01/05 05:37:41;;;;;;;12.23;3.50;;;11.50;99.90;;;;;;5082797;28;20163;-80
2023/01/05 05:40:07;;;;;;;7.87;2.87;;;11.40;99.90;;;;;;5101703;28;20646;-80
2023/01/05 05:42:33;;;;;;;18.73;2.80;;;11.40;99.90;;;;;;5102075;28;20166;-80
2023/01/05 05:44:58;;;;;;;16.90;3.93;;;11.40;99.90;;;;;;5101207;28;20781;-79
2023/01/05 05:47:24;;;;;;;13.60;3.00;;;11.40;99.90;;;;;;5103925;28;20711;-80
2023/01/05 05:49:49;;;;;;;22.93;4.97;;;11.40;99.90;;;;;;5097548;28;20185;-80
2023/01/05 05:52:15;;;;;;;13.93;2.63;;;11.40;99.90;;;;;;5081249;28;20227;-79
2023/01/05 05:54:40;;;;;;;13.87;3.17;;;11.40;99.90;;;;;;5083943;28;20665;-80
2023/01/05 05:57:06;;;;;;;10.03;2.43;;;11.50;99.90;;;;;;5084419;28;20189;-80
2023/01/05 05:59:31;;;;;;;12.70;3.10;;;11.50;99.90;;;;;;5084808;28;20170;-79
2023/01/05 06:01:57;;;;;;;13.57;3.30;;;11.50;99.90;;;;;;5097111;28;20165;-80
2023/01/05 06:04:22;;;;;;;10.27;3.30;;;11.40;99.90;;;;;;5102117;28;20231;-80
2023/01/05 06:06:48;;;;;;;11.27;3.00;;;11.50;99.90;;;;;;5102777;28;20276;-79
2023/01/05 06:09:13;;;;;;;17.90;4.20;;;11.50;99.90;;;;;;5101673;28;20631;-80
2023/01/05 06:11:39;;;;;;;21.47;2.93;;;11.40;99.90;;;;;;5090980;28;20206;-80
2023/01/05 06:14:05;;;;;;;9.13;2.73;;;11.40;99.90;;;;;;5083180;28;20601;-80
2023/01/05 06:16:30;;;;;;;18.30;5.00;;;11.50;99.90;;;;;;5082994;28;20280;-79
2023/01/05 06:18:56;;;;;;;12.20;4.47;;;11.40;99.90;;;;;;5084214;28;20447;-80
2023/01/05 06:21:22;;;;;;;11.03;4.40;;;11.40;99.90;;;;;;5086097;28;20166;-78
2023/01/05 06:23:47;;;;;;;8.13;3.07;;;11.50;99.90;;;;;;5080248;28;20177;-79
2023/01/05 06:26:13;;;;;;;5.33;2.33;;;11.50;99.90;;;;;;5078671;28;20562;-79
2023/01/05 06:28:39;;;;;;;12.03;3.70;;;11.50;99.90;;;;;;5079949;28;20173;-79
2023/01/05 06:31:05;;;;;;;15.90;3.20;;;11.50;99.90;;;;;;5081151;28;20178;-78
2023/01/05 06:33:30;;;;;;;7.10;3.60;;;11.60;99.90;;;;;;5078748;28;20177;-79
2023/01/05 06:35:57;;;;;;;11.10;2.43;;;11.60;99.90;;;;;;5078291;28;20505;-79
2023/01/05 06:38:23;;;;;;;16.60;3.53;;;11.70;99.90;;;;;;5078753;28;20174;-79
2023/01/05 06:40:49;;;;;;;21.33;3.80;;;11.70;99.90;;;;;;5080069;28;20416;-78
2023/01/05 06:43:14;;;;;;;7.13;3.50;;;11.60;99.90;;;;;;5079132;28;20440;-78
2023/01/05 06:45:40;;;;;;;14.63;4.00;;;11.70;99.90;;;;;;5080633;28;20194;-78
2023/01/05 06:48:05;;;;;;;7.20;2.93;;;11.70;99.90;;;;;;5085138;28;20463;-78
2023/01/05 06:50:31;;;;;;;9.60;3.00;;;11.60;99.90;;;;;;5084783;28;20251;-79
2023/01/05 06:52:57;;;;;;;13.40;2.73;;;11.70;99.90;;;;;;5084274;28;20639;-79
2023/01/05 06:55:23;;;;;;;16.13;3.27;;;11.60;99.90;;;;;;5085843;28;20178;-78
2023/01/05 06:57:49;;;;;;;13.20;3.37;;;11.60;99.90;;;;;;5085177;28;20770;-78
2023/01/05 07:00:15;;;;;;;10.17;3.20;;;11.70;99.90;;;;;;5083852;28;20174;-78
2023/01/05 07:02:41;;;;;;;18.17;3.50;;;11.60;99.90;;;;;;5080716;28;20173;-79
2023/01/05 07:05:07;;;;;;;10.20;3.67;;;11.50;99.90;;;;;;5080633;28;20420;-80
2023/01/05 07:07:33;;;;;;;11.93;4.27;;;11.60;99.90;;;;;;5093880;28;20174;-80
2023/01/05 07:09:58;;;;;;;16.13;3.50;;;11.60;99.90;;;;;;5082099;28;20773;-78
2023/01/05 07:12:24;;;;;;;9.60;2.50;;;11.60;99.90;;;;;;5083689;28;20655;-79
2023/01/05 07:14:50;;;;;;;18.40;3.00;;;11.60;99.90;;;;;;5084721;28;20535;-78
2023/01/05 07:17:15;;;;;;;13.90;3.10;;;11.70;99.90;;;;;;5095325;28;20196;-78
2023/01/05 07:19:41;;;;;;;10.83;3.53;;;11.60;99.90;;;;;;5103533;28;20261;-78
2023/01/05 07:22:07;;;;;;;25.90;6.50;;;11.60;99.90;;;;;;5104032;28;20169;-79
2023/01/05 07:24:32;;;;;;;7.70;2.77;;;11.60;99.90;;;;;;5105499;28;20177;-81
2023/01/05 07:26:58;;;;;;;6.77;2.80;;;11.70;99.90;;;;;;5101155;28;20202;-78
2023/01/05 07:29:24;;;;;;;10.97;2.90;;;11.70;99.90;;;;;;5098786;28;20185;-79
2023/01/05 07:31:51;;;;;;;12.20;3.03;;;11.70;99.90;;;;;;5086294;28;20635;-80
2023/01/05 07:34:17;;;;;;;18.63;4.10;;;11.80;99.90;;;;;;5083691;28;20194;-78
2023/01/05 07:36:43;;;;;;;11.30;3.00;;;11.90;99.90;;;;;;5079180;28;20424;-78
2023/01/05 07:39:08;;;;;;;6.30;2.73;;;11.80;99.90;;;;;;5078744;28;20886;-78
2023/01/05 07:41:34;;;;;;;15.13;3.23;;;11.80;99.90;;;;;;5077334;28;20223;-79
2023/01/05 07:44:00;;;;;;;7.33;2.83;;;11.80;99.90;;;;;;5074307;28;20559;-78
2023/01/05 07:46:26;;;;;;;8.97;2.77;;;11.80;99.90;;;;;;5075487;28;20205;-78
2023/01/05 07:48:52;;;;;;;8.80;2.90;;;11.80;99.90;;;;;;5074025;28;20405;-78
2023/01/05 07:51:18;;;;;;;14.47;4.73;;;11.80;99.90;;;;;;5075142;28;20170;-79
2023/01/05 07:53:43;;;;;;;9.13;3.17;;;11.80;99.90;;;;;;5075484;28;20814;-79
2023/01/05 07:56:11;;;;;;;14.53;4.83;;;11.80;99.90;;;;;;5094038;28;20215;-78
2023/01/05 07:58:36;;;;;;;12.97;3.40;;;11.90;99.90;;;;;;5096780;28;20185;-79
2023/01/05 08:01:07;;;;;;;5.67;2.27;;;11.90;99.90;;;;;;5106119;28;20396;-78
2023/01/05 08:03:33;;;;;;;19.53;3.70;;;11.90;99.90;;;;;;5103854;28;20176;-80
2023/01/05 08:06:10;;;;;;;11.90;3.13;;;11.90;99.90;;;;;;5104969;28;20428;-79
2023/01/05 08:08:35;;;;;;;17.53;3.13;;;12.00;99.90;;;;;;5100897;28;20177;-78
2023/01/05 08:11:05;;;;;;;7.40;2.30;;;12.00;99.90;;;;;;5083709;28;20546;-79
2023/01/05 08:16:15;;;;;;;15.67;3.90;;;12.00;99.90;;;;;;5083439;28;20860;-78
2023/01/05 08:18:41;;;;;;;7.33;3.23;;;12.00;99.90;;;;;;5083644;28;20404;-79
2023/01/05 08:21:07;;;;;;;7.17;2.93;;;11.90;99.90;;;;;;5096262;28;20161;-78
2023/01/05 08:23:33;;;;;;;14.10;3.03;;;12.00;99.90;;;;;;5102561;28;20179;-80
2023/01/05 08:26:07;;;;;;;16.50;3.00;;;11.90;99.90;;;;;;5103655;28;20478;-79
2023/01/05 08:28:34;;;;;;;16.33;3.03;;;12.00;99.90;;;;;;5094303;28;20908;-80
2023/01/05 08:31:03;;;;;;;13.30;3.20;;;12.00;99.90;;;;;;5101452;28;20479;-79
2023/01/05 08:33:28;;;;;;;12.83;3.13;;;12.00;99.90;;;;;;5098411;28;20420;-79
2023/01/05 08:35:54;;;;;;;16.13;3.80;;;12.00;99.90;;;;;;5081629;28;20548;-79
2023/01/05 08:38:23;;;;;;;8.93;2.87;;;12.00;99.90;;;;;;5082688;28;20174;-79
2023/01/05 08:40:49;;;;;;;10.83;3.00;;;12.20;99.90;;;;;;5082331;28;20170;-79
2023/01/05 08:43:14;;;;;;;15.57;4.20;;;12.20;99.90;;;;;;5079566;28;20424;-80
2023/01/05 08:45:40;;;;;;;14.00;3.20;;;12.20;99.90;;;;;;5076822;28;20201;-79
2023/01/05 08:48:06;;;;;;;17.40;4.60;;;12.30;99.90;;;;;;5082341;28;20177;-79
2023/01/05 08:50:31;;;;;;;19.57;4.70;;;12.30;99.90;;;;;;5082571;28;20170;-81
2023/01/05 08:52:57;;;;;;;13.50;4.10;;;12.30;99.90;;;;;;5083518;28;20265;-80
2023/01/05 08:55:23;;;;;;;14.03;3.07;;;12.20;99.90;;;;;;5082534;28;20202;-80
2023/01/05 08:57:49;;;;;;;19.53;4.00;;;12.20;99.90;;;;;;5084285;28;20409;-79
2023/01/05 09:00:20;;;;;;;8.97;3.30;;;12.40;99.90;;;;;;5082610;28;20703;-79
2023/01/05 09:02:46;;;;;;;12.47;3.60;;;12.50;99.90;;;;;;5085799;28;20173;-80
2023/01/05 09:05:12;;;;;;;12.70;2.70;;;12.60;99.90;;;;;;5084109;28;20408;-80
2023/01/05 09:07:37;;;;;;;16.00;3.37;;;12.80;99.90;;;;;;5083506;28;20474;-80
2023/01/05 09:10:04;;;;;;;23.67;3.20;;;12.60;99.90;;;;;;5083490;28;20170;-80
2023/01/05 09:12:30;;;;;;;12.23;3.00;;;12.50;99.90;;;;;;5078796;28;20167;-80
2023/01/05 09:14:55;;;;;;;13.23;2.73;;;12.60;99.90;;;;;;5073864;28;20489;-80
2023/01/05 09:17:21;;;;;;;13.70;3.87;;;12.60;99.90;;;;;;5072979;28;20671;-80
2023/01/05 09:19:46;;;;;;;21.40;4.60;;;12.70;99.90;;;;;;5072956;28;20170;-79
2023/01/05 09:22:12;;;;;;;15.13;3.70;;;12.80;99.90;;;;;;5078239;28;20177;-78
2023/01/05 09:24:38;;;;;;;17.53;3.87;;;12.90;99.90;;;;;;5082640;28;20230;-78
2023/01/05 09:27:04;;;;;;;16.60;5.03;;;13.00;99.90;;;;;;5075316;28;20217;-80
2023/01/05 09:29:30;;;;;;;13.13;3.33;;;13.20;99.90;;;;;;5084013;28;20408;-80
2023/01/05 09:31:55;;;;;;;15.90;3.97;;;13.40;99.90;;;;;;5096575;28;20465;-79
2023/01/05 09:34:21;;;;;;;8.60;3.43;;;13.50;99.90;;;;;;5095671;28;20214;-79
2023/01/05 09:36:46;;;;;;;18.37;4.80;;;13.40;99.90;;;;;;5090464;28;20197;-79
2023/01/05 09:39:12;;;;;;;11.10;2.83;;;13.40;99.90;;;;;;5076331;28;20257;-77
2023/01/05 09:41:40;;;;;;;13.80;2.90;;;13.30;99.90;;;;;;5076115;28;20526;-80
2023/01/05 09:44:29;;;;;;;6.57;2.17;;;13.30;99.90;;;;;;5072124;28;20568;-78
2023/01/05 09:46:59;;;;;;;13.77;5.23;;;13.30;99.90;;;;;;5072784;28;20530;-78
2023/01/05 09:49:27;;;;;;;9.13;3.50;;;13.20;99.90;;;;;;5072628;28;20932;-77
2023/01/05 09:52:08;;;;;;;16.90;3.03;;;13.10;99.90;;;;;;5105119;28;20407;-77
2023/01/05 09:54:34;;;;;;;9.27;3.23;;;13.10;99.90;;;;;;5075118;28;20440;-78
2023/01/05 09:57:00;;;;;;;15.33;3.60;;;13.30;99.90;;;;;;5073086;28;20436;-78
2023/01/05 09:59:32;;;;;;;15.83;4.50;;;13.40;99.90;;;;;;5086609;28;20459;-79
2023/01/05 10:02:13;;;;;;;11.47;2.73;;;13.50;99.90;;;;;;5093380;28;20415;-79
2023/01/05 10:04:39;;;;;;;14.60;3.77;;;13.60;99.90;;;;;;5075461;28;20765;-79
2023/01/05 10:07:14;;;;;;;21.87;3.67;;;13.80;99.90;;;;;;5093303;28;20435;-78
2023/01/05 10:09:39;;;;;;;10.83;3.27;;;13.80;99.90;;;;;;5098210;28;20437;-79
2023/01/05 10:15:17;;;;;;;9.87;3.73;;;13.70;99.90;;;;;;5097325;28;20689;-77
2023/01/05 10:17:43;;;;;;;25.83;3.90;;;13.80;99.90;;;;;;5095943;28;20443;-76
2023/01/05 10:20:32;;;;;;;16.77;4.00;;;14.00;99.90;;;;;;5096480;28;20416;-80
2023/01/05 10:23:26;;;;;;;11.93;3.27;;;14.20;99.90;;;;;;5065085;28;20411;-77
2023/01/05 10:26:13;;;;;;;7.40;3.00;;;14.40;99.90;;;;;;5092012;28;20466;-78
2023/01/05 10:28:54;;;;;;;16.67;3.47;;;14.50;99.90;;;;;;5093823;28;20428;-81
2023/01/05 10:31:25;;;;;;;10.43;3.20;;;14.40;99.90;;;;;;5106283;28;20443;-79
2023/01/05 10:34:04;;;;;;;15.03;3.17;;;14.40;99.90;;;;;;5093285;28;20478;-78
2023/01/05 10:36:52;;;;;;;12.00;3.60;;;14.50;99.90;;;;;;5093055;28;20537;-79
2023/01/05 10:39:21;;;;;;;7.60;2.50;;;14.50;99.90;;;;;;5091202;28;20405;-78
2023/01/05 10:41:57;;;;;;;10.00;3.30;;;14.60;99.90;;;;;;5086004;28;20466;-78
2023/01/05 10:44:41;;;;;;;10.77;2.93;;;14.60;99.90;;;;;;5085480;28;20423;-78
2023/01/05 10:47:09;;;;;;;14.67;3.23;;;14.60;99.90;;;;;;5084932;28;20428;-78
2023/01/05 10:49:35;;;;;;;8.37;3.30;;;14.40;99.90;;;;;;5084941;28;20913;-78
2023/01/05 10:52:01;;;;;;;10.03;2.70;;;14.50;99.90;;;;;;5079986;28;20421;-78
2023/01/05 10:54:44;;;;;;;20.53;3.70;;;14.70;99.90;;;;;;5082883;28;20452;-78
2023/01/05 10:57:27;;;;;;;11.90;2.90;;;14.70;99.90;;;;;;5086325;28;20731;-78
2023/01/05 10:59:57;;;;;;;8.33;3.27;;;14.80;99.90;;;;;;5086286;28;20416;-78
2023/01/05 11:02:25;;;;;;;6.83;2.80;;;14.90;99.90;;;;;;5085119;28;20409;-78
2023/01/05 11:04:52;;;;;;;19.77;3.80;;;15.00;99.90;;;;;;5089190;28;20400;-78
2023/01/05 11:07:18;;;;;;;9.00;3.90;;;15.10;99.90;;;;;;5087634;28;20436;-78
2023/01/05 11:09:47;;;;;;;15.03;3.03;;;15.20;99.90;;;;;;5087206;28;20422;-78
2023/01/05 11:12:19;;;;;;;12.80;3.50;;;15.20;99.90;;;;;;5085188;28;20237;-78
2023/01/05 11:14:52;;;;;;;9.10;3.13;;;15.00;99.90;;;;;;5085454;28;20463;-78
2023/01/05 11:17:21;;;;;;;7.70;2.80;;;15.00;99.90;;;;;;5088829;28;20459;-78
2023/01/05 11:19:51;;;;;;;15.97;3.10;;;14.90;99.90;;;;;;5086017;28;20407;-78
2023/01/05 11:22:37;;;;;;;6.83;2.50;;;14.90;99.90;;;;;;5087134;28;20417;-78
2023/01/05 11:25:24;;;;;;;8.13;3.80;;;15.20;99.90;;;;;;5087484;28;20438;-77
2023/01/05 11:28:05;;;;;;;9.17;3.00;;;15.20;99.90;;;;;;5086706;28;20431;-78
2023/01/05 11:30:32;;;;;;;13.33;3.50;;;15.30;99.90;;;;;;5086358;28;20522;-76
2023/01/05 11:33:00;;;;;;;17.30;2.43;;;15.50;99.90;;;;;;5082433;28;20910;-78
2023/01/05 11:35:36;;;;;;;7.63;3.10;;;15.70;99.90;;;;;;5086560;28;20490;-78
2023/01/05 11:38:01;;;;;;;11.57;2.93;;;15.90;99.90;;;;;;5084807;28;20403;-78
2023/01/05 11:40:30;;;;;;;9.23;2.87;;;16.10;99.90;;;;;;5088563;28;20415;-78
2023/01/05 11:42:56;;;;;;;11.70;3.30;;;17.10;99.90;;;;;;5085923;28;20166;-78
2023/01/05 11:45:24;;;;;;;9.77;3.60;;;18.80;99.90;;;;;;5087180;28;20418;-79
2023/01/05 11:47:59;;;;;;;10.70;3.63;;;20.10;99.90;;;;;;5087920;28;20427;-78
2023/01/05 11:50:27;;;;;;;13.50;3.20;;;20.90;99.90;;;;;;5088296;28;20423;-78
2023/01/05 11:52:55;;;;;;;9.87;3.57;;;21.40;99.90;;;;;;5087736;28;20419;-78
2023/01/05 11:55:30;;;;;;;10.30;3.07;;;22.60;99.90;;;;;;5087746;28;20463;-78
2023/01/05 11:58:08;;;;;;;9.47;3.43;;;23.70;94.10;;;;;;5089554;28;20412;-78
2023/01/05 12:00:52;;;;;;;11.00;3.70;;;23.80;88.60;;;;;;5089784;28;20487;-78
2023/01/05 12:03:26;;;;;;;12.90;3.73;;;23.50;84.80;;;;;;5088360;28;20462;-78
2023/01/05 12:05:59;;;;;;;6.53;2.67;;;23.70;86.20;;;;;;5086915;28;20437;-78
2023/01/05 12:08:43;;;;;;;7.00;2.90;;;25.30;86.20;;;;;;5083974;28;20420;-78
2023/01/05 12:11:18;;;;;;;7.27;2.47;;;27.00;79.60;;;;;;5084277;28;20420;-77
2023/01/05 12:14:03;;;;;;;8.80;3.23;;;28.90;71.30;;;;;;5080792;28;20423;-76
2023/01/05 12:16:55;;;;;;;11.00;3.20;;;30.40;58.30;;;;;;5090194;28;20438;-77
2023/01/05 12:19:45;;;;;;;11.30;4.40;;;31.70;53.70;;;;;;5074108;28;20417;-77
2023/01/05 12:22:28;;;;;;;9.37;3.30;;;30.60;49.60;;;;;;5085640;28;20970;-77
2023/01/05 12:25:12;;;;;;;9.90;3.20;;;29.70;48.60;;;;;;5086573;28;20442;-77
2023/01/05 12:28:11;;;;;;;9.07;3.40;;;29.00;50.90;;;;;;5087181;28;20397;-77
2023/01/05 12:30:45;;;;;;;9.63;3.80;;;28.30;51.20;;;;;;5089738;28;20431;-77
2023/01/05 12:33:33;;;;;;;10.33;4.47;;;28.20;52.20;;;;;;5088857;28;20415;-77
2023/01/05 12:36:11;;;;;;;9.10;3.20;;;28.80;52.60;;;;;;5092453;28;20448;-76
2023/01/05 12:39:03;;;;;;;7.33;3.40;;;29.80;52.40;;;;;;5077503;28;20412;-77
2023/01/05 12:41:52;;;;;;;7.20;3.17;;;30.60;51.30;;;;;;5081652;28;20416;-77
2023/01/05 12:44:51;;;;;;;6.83;3.10;;;30.20;49.30;;;;;;5099094;28;20419;-77
2023/01/05 12:47:24;;;;;;;15.40;3.37;;;29.20;49.90;;;;;;5084311;28;21016;-77
2023/01/05 12:49:58;;;;;;;9.67;3.13;;;27.10;48.80;;;;;;5074305;28;20409;-77
2023/01/05 12:52:27;;;;;;;8.83;2.87;;;25.10;51.00;;;;;;5074785;28;20405;-77
2023/01/05 12:55:03;;;;;;;6.37;2.70;;;24.10;53.80;;;;;;5074169;28;20531;-77
2023/01/05 12:57:41;;;;;;;10.43;3.80;;;23.20;55.80;;;;;;5073131;28;20558;-76
2023/01/05 13:00:12;;;;;;;11.17;3.60;;;22.10;57.10;;;;;;5074180;28;20404;-77
2023/01/05 13:02:43;;;;;;;6.97;3.30;;;20.20;59.20;;;;;;5073764;28;20404;-77
2023/01/05 13:05:24;;;;;;;10.47;2.50;;;19.40;63.60;;;;;;5072589;28;20409;-77
2023/01/05 13:08:07;;;;;;;9.70;2.93;;;18.70;69.20;;;;;;5076803;28;20761;-77
2023/01/05 13:10:44;;;;;;;10.00;3.17;;;18.10;74.40;;;;;;5076921;28;20423;-77
2023/01/05 13:13:17;;;;;;;15.27;3.10;;;17.90;81.80;;;;;;5076488;28;20435;-78
2023/01/05 13:15:51;;;;;;;3.37;2.10;;;17.80;89.70;;;;;;5076121;28;20513;-78
2023/01/05 13:18:18;;;;;;;8.77;3.00;;;17.80;91.80;;;;;;5078069;28;20401;-78
2023/01/05 13:20:55;;;;;;;11.00;3.07;;;17.80;94.60;;;;;;5078064;28;20507;-78
2023/01/05 13:23:26;;;;;;;8.83;2.80;;;18.10;97.70;;;;;;5076810;28;20408;-78
2023/01/05 13:26:16;;;;;;;6.23;1.97;;;19.00;97.20;;;;;;5076351;28;20428;-78
2023/01/05 13:28:45;;;;;;;7.93;2.73;;;19.80;93.30;;;;;;5072764;28;20431;-78
2023/01/05 13:31:34;;;;;;;10.40;2.20;;;19.60;91.30;;;;;;5078449;28;20415;-78
2023/01/05 13:34:29;;;;;;;12.90;3.27;;;19.10;91.20;;;;;;5076675;28;20503;-78